sensor_id;sensor_type;location;lat;lon;timestamp;P1;durP1;ratioP1;P2;durP2;ratioP2
793;SDS011;380;48.738;9.214;2023-09-18T00:01:27;2.88;;;2.15;;
793;SDS011;380;48.738;9.214;2023-09-18T00:03:53;2.95;;;2.05;;
793;SDS011;380;48.738;9.214;2023-09-18T00:06:19;2.97;;;2.05;;
793;SDS011;380;48.738;9.214;2023-09-18T00:08:48;3.88;;;1.80;;
793;SDS011;380;48.738;9.214;2023-09-18T00:11:16;2.53;;;1.88;;
793;SDS011;380;48.738;9.214;2023-09-18T00:13:41;3.67;;;2.38;;
793;SDS011;380;48.738;9.214;2023-09-18T00:16:08;4.93;;;2.15;;
793;SDS011;380;48.738;9.214;2023-09-18T00:18:33;2.92;;;2.03;;
793;SDS011;380;48.738;9.214;2023-09-18T00:20:59;2.88;;;2.28;;
793;SDS011;380;48.738;9.214;2023-09-18T00:23:25;4.13;;;1.92;;
793;SDS011;380;48.738;9.214;2023-09-18T00:25:51;3.75;;;2.42;;
793;SDS011;380;48.738;9.214;2023-09-18T00:28:17;3.53;;;2.00;;
793;SDS011;380;48.738;9.214;2023-09-18T00:30:46;6.88;;;2.20;;
793;SDS011;380;48.738;9.214;2023-09-18T00:33:13;2.72;;;2.13;;
793;SDS011;380;48.738;9.214;2023-09-18T00:35:39;3.47;;;2.40;;
793;SDS011;380;48.738;9.214;2023-09-18T00:38:05;4.15;;;2.38;;
793;SDS011;380;48.738;9.214;2023-09-18T00:40:32;3.90;;;2.15;;
793;SDS011;380;48.738;9.214;2023-09-18T00:42:58;2.85;;;2.10;;
793;SDS011;380;48.738;9.214;2023-09-18T00:45:24;2.83;;;1.77;;
793;SDS011;380;48.738;9.214;2023-09-18T00:47:50;3.90;;;1.98;;
793;SDS011;380;48.738;9.214;2023-09-18T00:50:16;3.10;;;2.15;;
793;SDS011;380;48.738;9.214;2023-09-18T00:52:42;2.85;;;2.00;;
793;SDS011;380;48.738;9.214;2023-09-18T00:55:08;3.33;;;2.50;;
793;SDS011;380;48.738;9.214;2023-09-18T00:57:34;3.30;;;2.22;;
793;SDS011;380;48.738;9.214;2023-09-18T01:00:01;3.05;;;2.38;;
793;SDS011;380;48.738;9.214;2023-09-18T01:02:29;2.38;;;1.65;;
793;SDS011;380;48.738;9.214;2023-09-18T01:04:54;2.88;;;1.75;;
793;SDS011;380;48.738;9.214;2023-09-18T01:07:21;2.38;;;1.77;;
793;SDS011;380;48.738;9.214;2023-09-18T01:09:47;3.38;;;2.38;;
793;SDS011;380;48.738;9.214;2023-09-18T01:14:43;3.33;;;1.80;;
793;SDS011;380;48.738;9.214;2023-09-18T01:17:10;2.88;;;1.60;;
793;SDS011;380;48.738;9.214;2023-09-18T01:19:39;2.80;;;2.25;;
793;SDS011;380;48.738;9.214;2023-09-18T01:22:06;3.22;;;2.33;;
793;SDS011;380;48.738;9.214;2023-09-18T01:24:33;3.20;;;2.10;;
793;SDS011;380;48.738;9.214;2023-09-18T01:26:59;2.70;;;1.95;;
793;SDS011;380;48.738;9.214;2023-09-18T01:29:25;4.68;;;2.08;;
793;SDS011;380;48.738;9.214;2023-09-18T01:31:51;2.53;;;1.92;;
793;SDS011;380;48.738;9.214;2023-09-18T01:34:18;2.78;;;1.80;;
793;SDS011;380;48.738;9.214;2023-09-18T01:36:45;3.47;;;2.10;;
793;SDS011;380;48.738;9.214;2023-09-18T01:39:11;3.45;;;1.85;;
793;SDS011;380;48.738;9.214;2023-09-18T01:41:38;2.55;;;1.70;;
793;SDS011;380;48.738;9.214;2023-09-18T01:44:04;2.60;;;1.92;;
793;SDS011;380;48.738;9.214;2023-09-18T01:46:30;3.00;;;2.05;;
793;SDS011;380;48.738;9.214;2023-09-18T01:48:58;2.42;;;1.55;;
793;SDS011;380;48.738;9.214;2023-09-18T01:51:24;2.90;;;2.28;;
793;SDS011;380;48.738;9.214;2023-09-18T01:53:50;4.18;;;1.80;;
793;SDS011;380;48.738;9.214;2023-09-18T01:56:16;3.38;;;2.00;;
793;SDS011;380;48.738;9.214;2023-09-18T01:58:42;3.28;;;2.00;;
793;SDS011;380;48.738;9.214;2023-09-18T02:01:08;4.03;;;2.00;;
793;SDS011;380;48.738;9.214;2023-09-18T02:03:34;2.92;;;1.77;;
793;SDS011;380;48.738;9.214;2023-09-18T02:05:59;4.25;;;1.92;;
793;SDS011;380;48.738;9.214;2023-09-18T02:08:25;3.75;;;1.63;;
793;SDS011;380;48.738;9.214;2023-09-18T02:10:51;4.65;;;1.60;;
793;SDS011;380;48.738;9.214;2023-09-18T02:13:17;9.23;;;1.95;;
793;SDS011;380;48.738;9.214;2023-09-18T02:15:43;2.88;;;1.63;;
793;SDS011;380;48.738;9.214;2023-09-18T02:18:09;5.72;;;2.53;;
793;SDS011;380;48.738;9.214;2023-09-18T02:20:40;3.33;;;1.40;;
793;SDS011;380;48.738;9.214;2023-09-18T02:23:06;4.45;;;2.00;;
793;SDS011;380;48.738;9.214;2023-09-18T02:25:32;7.45;;;2.25;;
793;SDS011;380;48.738;9.214;2023-09-18T02:27:58;4.75;;;1.77;;
793;SDS011;380;48.738;9.214;2023-09-18T02:30:24;2.60;;;1.70;;
793;SDS011;380;48.738;9.214;2023-09-18T02:32:50;8.15;;;2.10;;
793;SDS011;380;48.738;9.214;2023-09-18T02:35:16;2.47;;;1.30;;
793;SDS011;380;48.738;9.214;2023-09-18T02:37:42;6.60;;;2.17;;
793;SDS011;380;48.738;9.214;2023-09-18T02:40:08;3.55;;;1.65;;
793;SDS011;380;48.738;9.214;2023-09-18T02:42:34;2.78;;;1.63;;
793;SDS011;380;48.738;9.214;2023-09-18T02:45:00;5.90;;;2.03;;
793;SDS011;380;48.738;9.214;2023-09-18T02:47:26;7.65;;;1.92;;
793;SDS011;380;48.738;9.214;2023-09-18T02:49:52;4.07;;;1.42;;
793;SDS011;380;48.738;9.214;2023-09-18T02:52:17;2.10;;;1.17;;
793;SDS011;380;48.738;9.214;2023-09-18T02:54:43;3.22;;;1.52;;
793;SDS011;380;48.738;9.214;2023-09-18T02:57:09;3.03;;;1.35;;
793;SDS011;380;48.738;9.214;2023-09-18T02:59:35;2.10;;;1.42;;
793;SDS011;380;48.738;9.214;2023-09-18T03:02:01;3.00;;;1.75;;
793;SDS011;380;48.738;9.214;2023-09-18T03:04:29;5.35;;;1.63;;
793;SDS011;380;48.738;9.214;2023-09-18T03:06:55;6.22;;;1.98;;
793;SDS011;380;48.738;9.214;2023-09-18T03:09:21;2.40;;;1.17;;
793;SDS011;380;48.738;9.214;2023-09-18T03:11:47;3.67;;;1.00;;
793;SDS011;380;48.738;9.214;2023-09-18T03:14:14;2.95;;;1.48;;
793;SDS011;380;48.738;9.214;2023-09-18T03:16:40;4.57;;;2.08;;
793;SDS011;380;48.738;9.214;2023-09-18T03:19:05;3.58;;;1.33;;
793;SDS011;380;48.738;9.214;2023-09-18T03:21:31;7.78;;;2.05;;
793;SDS011;380;48.738;9.214;2023-09-18T03:24:00;5.30;;;1.85;;
793;SDS011;380;48.738;9.214;2023-09-18T03:26:26;4.22;;;2.03;;
793;SDS011;380;48.738;9.214;2023-09-18T03:28:52;6.93;;;1.55;;
793;SDS011;380;48.738;9.214;2023-09-18T03:31:18;2.97;;;1.38;;
793;SDS011;380;48.738;9.214;2023-09-18T03:33:44;2.85;;;1.40;;
793;SDS011;380;48.738;9.214;2023-09-18T03:36:11;6.13;;;1.70;;
793;SDS011;380;48.738;9.214;2023-09-18T03:38:38;1.67;;;1.02;;
793;SDS011;380;48.738;9.214;2023-09-18T03:41:04;6.57;;;2.15;;
793;SDS011;380;48.738;9.214;2023-09-18T03:43:30;2.83;;;1.58;;
793;SDS011;380;48.738;9.214;2023-09-18T03:46:14;8.18;;;1.95;;
793;SDS011;380;48.738;9.214;2023-09-18T03:48:40;2.63;;;1.30;;
793;SDS011;380;48.738;9.214;2023-09-18T03:51:06;4.50;;;1.85;;
793;SDS011;380;48.738;9.214;2023-09-18T03:53:37;10.95;;;1.75;;
793;SDS011;380;48.738;9.214;2023-09-18T03:56:03;2.67;;;1.17;;
793;SDS011;380;48.738;9.214;2023-09-18T03:58:29;3.65;;;1.55;;
793;SDS011;380;48.738;9.214;2023-09-18T04:00:55;3.90;;;1.42;;
793;SDS011;380;48.738;9.214;2023-09-18T04:03:21;5.50;;;1.60;;
793;SDS011;380;48.738;9.214;2023-09-18T04:05:47;5.03;;;1.65;;
793;SDS011;380;48.738;9.214;2023-09-18T04:08:13;2.90;;;1.58;;
793;SDS011;380;48.738;9.214;2023-09-18T04:10:39;4.85;;;1.70;;
793;SDS011;380;48.738;9.214;2023-09-18T04:13:05;2.95;;;1.10;;
793;SDS011;380;48.738;9.214;2023-09-18T04:15:31;6.65;;;1.70;;
793;SDS011;380;48.738;9.214;2023-09-18T04:17:57;5.13;;;1.35;;
793;SDS011;380;48.738;9.214;2023-09-18T04:20:23;4.05;;;1.70;;
793;SDS011;380;48.738;9.214;2023-09-18T04:23:16;4.60;;;1.73;;
793;SDS011;380;48.738;9.214;2023-09-18T04:25:35;2.83;;;1.42;;
793;SDS011;380;48.738;9.214;2023-09-18T04:28:01;3.03;;;1.20;;
793;SDS011;380;48.738;9.214;2023-09-18T04:30:27;2.85;;;1.65;;
793;SDS011;380;48.738;9.214;2023-09-18T04:32:53;3.03;;;1.42;;
793;SDS011;380;48.738;9.214;2023-09-18T04:35:19;5.47;;;1.67;;
793;SDS011;380;48.738;9.214;2023-09-18T04:37:45;4.75;;;1.77;;
793;SDS011;380;48.738;9.214;2023-09-18T04:40:11;3.30;;;1.35;;
793;SDS011;380;48.738;9.214;2023-09-18T04:42:37;4.03;;;1.65;;
793;SDS011;380;48.738;9.214;2023-09-18T04:45:04;5.00;;;1.25;;
793;SDS011;380;48.738;9.214;2023-09-18T04:47:30;3.20;;;1.52;;
793;SDS011;380;48.738;9.214;2023-09-18T04:49:56;6.20;;;1.40;;
793;SDS011;380;48.738;9.214;2023-09-18T04:52:22;1.90;;;1.13;;
793;SDS011;380;48.738;9.214;2023-09-18T04:54:48;4.80;;;1.50;;
793;SDS011;380;48.738;9.214;2023-09-18T04:57:14;2.70;;;1.40;;
793;SDS011;380;48.738;9.214;2023-09-18T04:59:40;2.55;;;1.38;;
793;SDS011;380;48.738;9.214;2023-09-18T05:02:06;4.20;;;1.83;;
793;SDS011;380;48.738;9.214;2023-09-18T05:04:32;6.80;;;2.00;;
793;SDS011;380;48.738;9.214;2023-09-18T05:06:58;3.45;;;2.03;;
793;SDS011;380;48.738;9.214;2023-09-18T05:09:26;3.65;;;1.83;;
793;SDS011;380;48.738;9.214;2023-09-18T05:11:52;3.40;;;1.80;;
793;SDS011;380;48.738;9.214;2023-09-18T05:14:18;8.57;;;1.83;;
793;SDS011;380;48.738;9.214;2023-09-18T05:16:44;4.40;;;2.25;;
793;SDS011;380;48.738;9.214;2023-09-18T05:19:10;3.05;;;1.50;;
793;SDS011;380;48.738;9.214;2023-09-18T05:21:37;4.90;;;1.90;;
793;SDS011;380;48.738;9.214;2023-09-18T05:24:03;3.22;;;1.48;;
793;SDS011;380;48.738;9.214;2023-09-18T05:26:30;3.40;;;1.80;;
793;SDS011;380;48.738;9.214;2023-09-18T05:28:56;3.30;;;1.50;;
793;SDS011;380;48.738;9.214;2023-09-18T05:31:22;4.93;;;2.08;;
793;SDS011;380;48.738;9.214;2023-09-18T05:33:49;1.80;;;1.10;;
793;SDS011;380;48.738;9.214;2023-09-18T05:36:15;6.93;;;2.00;;
793;SDS011;380;48.738;9.214;2023-09-18T05:38:42;2.72;;;1.60;;
793;SDS011;380;48.738;9.214;2023-09-18T05:41:11;2.85;;;1.48;;
793;SDS011;380;48.738;9.214;2023-09-18T05:43:37;3.05;;;2.03;;
793;SDS011;380;48.738;9.214;2023-09-18T05:46:03;5.57;;;2.42;;
793;SDS011;380;48.738;9.214;2023-09-18T05:48:30;1.98;;;1.38;;
793;SDS011;380;48.738;9.214;2023-09-18T05:50:56;3.10;;;1.92;;
793;SDS011;380;48.738;9.214;2023-09-18T05:53:22;6.03;;;2.10;;
793;SDS011;380;48.738;9.214;2023-09-18T05:55:48;5.03;;;2.30;;
793;SDS011;380;48.738;9.214;2023-09-18T05:58:14;3.88;;;1.67;;
793;SDS011;380;48.738;9.214;2023-09-18T06:00:42;2.10;;;1.40;;
793;SDS011;380;48.738;9.214;2023-09-18T06:03:08;2.67;;;1.60;;
793;SDS011;380;48.738;9.214;2023-09-18T06:05:37;3.45;;;1.75;;
793;SDS011;380;48.738;9.214;2023-09-18T06:08:03;3.00;;;2.03;;
793;SDS011;380;48.738;9.214;2023-09-18T06:10:29;6.90;;;1.17;;
793;SDS011;380;48.738;9.214;2023-09-18T06:12:55;2.90;;;1.65;;
793;SDS011;380;48.738;9.214;2023-09-18T06:15:21;5.93;;;1.70;;
793;SDS011;380;48.738;9.214;2023-09-18T06:17:47;2.50;;;1.58;;
793;SDS011;380;48.738;9.214;2023-09-18T06:20:13;4.07;;;1.92;;
793;SDS011;380;48.738;9.214;2023-09-18T06:22:40;3.22;;;1.58;;
793;SDS011;380;48.738;9.214;2023-09-18T06:25:07;4.95;;;2.17;;
793;SDS011;380;48.738;9.214;2023-09-18T06:27:34;4.82;;;1.92;;
793;SDS011;380;48.738;9.214;2023-09-18T06:30:01;4.63;;;2.08;;
793;SDS011;380;48.738;9.214;2023-09-18T06:32:27;3.90;;;1.85;;
793;SDS011;380;48.738;9.214;2023-09-18T06:34:53;4.28;;;1.80;;
793;SDS011;380;48.738;9.214;2023-09-18T06:37:19;9.18;;;1.85;;
793;SDS011;380;48.738;9.214;2023-09-18T06:39:45;3.00;;;1.58;;
793;SDS011;380;48.738;9.214;2023-09-18T06:42:11;5.53;;;2.03;;
793;SDS011;380;48.738;9.214;2023-09-18T06:44:37;4.85;;;1.73;;
793;SDS011;380;48.738;9.214;2023-09-18T06:47:03;2.42;;;1.40;;
793;SDS011;380;48.738;9.214;2023-09-18T06:49:29;5.70;;;1.15;;
793;SDS011;380;48.738;9.214;2023-09-18T06:51:55;1.70;;;1.23;;
793;SDS011;380;48.738;9.214;2023-09-18T06:54:21;4.38;;;1.63;;
793;SDS011;380;48.738;9.214;2023-09-18T06:56:47;9.23;;;2.35;;
793;SDS011;380;48.738;9.214;2023-09-18T06:59:13;4.47;;;1.60;;
793;SDS011;380;48.738;9.214;2023-09-18T07:01:39;4.22;;;1.80;;
793;SDS011;380;48.738;9.214;2023-09-18T07:04:07;4.75;;;2.13;;
793;SDS011;380;48.738;9.214;2023-09-18T07:06:33;3.15;;;1.63;;
793;SDS011;380;48.738;9.214;2023-09-18T07:08:59;2.47;;;1.10;;
793;SDS011;380;48.738;9.214;2023-09-18T07:11:25;3.53;;;1.42;;
793;SDS011;380;48.738;9.214;2023-09-18T07:13:51;5.38;;;1.75;;
793;SDS011;380;48.738;9.214;2023-09-18T07:16:17;3.42;;;1.40;;
793;SDS011;380;48.738;9.214;2023-09-18T07:18:43;2.67;;;1.40;;
793;SDS011;380;48.738;9.214;2023-09-18T07:21:09;2.72;;;1.42;;
793;SDS011;380;48.738;9.214;2023-09-18T07:23:35;3.92;;;1.35;;
793;SDS011;380;48.738;9.214;2023-09-18T07:26:02;4.80;;;1.20;;
793;SDS011;380;48.738;9.214;2023-09-18T07:28:28;2.28;;;1.02;;
793;SDS011;380;48.738;9.214;2023-09-18T07:30:54;3.88;;;1.77;;
793;SDS011;380;48.738;9.214;2023-09-18T07:33:20;2.03;;;0.77;;
793;SDS011;380;48.738;9.214;2023-09-18T07:35:49;2.80;;;1.23;;
793;SDS011;380;48.738;9.214;2023-09-18T07:38:18;1.92;;;0.95;;
793;SDS011;380;48.738;9.214;2023-09-18T07:40:44;2.78;;;0.82;;
793;SDS011;380;48.738;9.214;2023-09-18T07:43:11;3.03;;;1.00;;
793;SDS011;380;48.738;9.214;2023-09-18T07:45:40;1.90;;;0.80;;
793;SDS011;380;48.738;9.214;2023-09-18T07:48:07;4.30;;;1.02;;
793;SDS011;380;48.738;9.214;2023-09-18T07:50:33;3.40;;;1.00;;
793;SDS011;380;48.738;9.214;2023-09-18T07:53:00;0.82;;;0.40;;
793;SDS011;380;48.738;9.214;2023-09-18T07:55:26;2.40;;;1.20;;
793;SDS011;380;48.738;9.214;2023-09-18T07:57:52;2.83;;;0.85;;
793;SDS011;380;48.738;9.214;2023-09-18T08:00:18;1.58;;;0.60;;
793;SDS011;380;48.738;9.214;2023-09-18T08:02:47;2.08;;;0.75;;
793;SDS011;380;48.738;9.214;2023-09-18T08:05:14;1.75;;;0.70;;
793;SDS011;380;48.738;9.214;2023-09-18T08:07:41;1.50;;;0.60;;
793;SDS011;380;48.738;9.214;2023-09-18T08:10:07;0.93;;;0.57;;
793;SDS011;380;48.738;9.214;2023-09-18T08:12:33;2.00;;;0.85;;
793;SDS011;380;48.738;9.214;2023-09-18T08:15:00;3.83;;;1.17;;
793;SDS011;380;48.738;9.214;2023-09-18T08:17:26;0.60;;;0.30;;
793;SDS011;380;48.738;9.214;2023-09-18T08:19:52;3.92;;;0.57;;
793;SDS011;380;48.738;9.214;2023-09-18T08:22:19;1.42;;;0.38;;
793;SDS011;380;48.738;9.214;2023-09-18T08:24:49;2.08;;;0.60;;
793;SDS011;380;48.738;9.214;2023-09-18T08:27:17;2.88;;;0.47;;
793;SDS011;380;48.738;9.214;2023-09-18T08:29:46;1.05;;;0.47;;
793;SDS011;380;48.738;9.214;2023-09-18T08:32:12;2.17;;;0.68;;
793;SDS011;380;48.738;9.214;2023-09-18T08:34:38;2.00;;;0.73;;
793;SDS011;380;48.738;9.214;2023-09-18T08:37:04;1.30;;;0.55;;
793;SDS011;380;48.738;9.214;2023-09-18T08:39:30;2.92;;;0.68;;
793;SDS011;380;48.738;9.214;2023-09-18T08:42:04;2.72;;;0.57;;
793;SDS011;380;48.738;9.214;2023-09-18T08:44:31;1.13;;;0.52;;
793;SDS011;380;48.738;9.214;2023-09-18T08:46:57;1.92;;;0.95;;
793;SDS011;380;48.738;9.214;2023-09-18T08:49:23;1.33;;;0.52;;
793;SDS011;380;48.738;9.214;2023-09-18T08:51:53;1.90;;;0.75;;
793;SDS011;380;48.738;9.214;2023-09-18T08:54:20;1.00;;;0.57;;
793;SDS011;380;48.738;9.214;2023-09-18T08:56:46;1.10;;;0.50;;
793;SDS011;380;48.738;9.214;2023-09-18T08:59:12;1.30;;;0.50;;
793;SDS011;380;48.738;9.214;2023-09-18T09:01:38;3.40;;;0.63;;
793;SDS011;380;48.738;9.214;2023-09-18T09:04:05;0.57;;;0.35;;
793;SDS011;380;48.738;9.214;2023-09-18T09:06:31;1.90;;;0.70;;
793;SDS011;380;48.738;9.214;2023-09-18T09:08:57;1.23;;;0.60;;
793;SDS011;380;48.738;9.214;2023-09-18T09:11:24;1.50;;;0.60;;
793;SDS011;380;48.738;9.214;2023-09-18T09:16:36;2.05;;;1.00;;
793;SDS011;380;48.738;9.214;2023-09-18T09:19:05;1.20;;;0.40;;
793;SDS011;380;48.738;9.214;2023-09-18T09:21:40;3.03;;;0.60;;
793;SDS011;380;48.738;9.214;2023-09-18T09:24:08;2.00;;;1.00;;
793;SDS011;380;48.738;9.214;2023-09-18T09:26:39;1.30;;;0.73;;
793;SDS011;380;48.738;9.214;2023-09-18T09:29:14;2.10;;;0.63;;
793;SDS011;380;48.738;9.214;2023-09-18T09:31:43;0.80;;;0.40;;
793;SDS011;380;48.738;9.214;2023-09-18T09:34:08;1.38;;;0.63;;
793;SDS011;380;48.738;9.214;2023-09-18T09:36:34;1.30;;;0.60;;
793;SDS011;380;48.738;9.214;2023-09-18T09:39:00;1.20;;;0.50;;
793;SDS011;380;48.738;9.214;2023-09-18T09:41:31;1.95;;;0.60;;
793;SDS011;380;48.738;9.214;2023-09-18T09:43:58;2.92;;;0.95;;
793;SDS011;380;48.738;9.214;2023-09-18T09:46:24;2.58;;;0.88;;
793;SDS011;380;48.738;9.214;2023-09-18T09:49:00;5.75;;;1.25;;
793;SDS011;380;48.738;9.214;2023-09-18T09:51:26;1.30;;;0.70;;
793;SDS011;380;48.738;9.214;2023-09-18T09:53:53;4.05;;;0.95;;
793;SDS011;380;48.738;9.214;2023-09-18T09:56:19;2.22;;;0.73;;
793;SDS011;380;48.738;9.214;2023-09-18T09:59:03;1.33;;;0.65;;
793;SDS011;380;48.738;9.214;2023-09-18T10:01:31;1.67;;;0.77;;
793;SDS011;380;48.738;9.214;2023-09-18T10:03:57;2.25;;;1.17;;
793;SDS011;380;48.738;9.214;2023-09-18T10:06:25;1.83;;;1.02;;
793;SDS011;380;48.738;9.214;2023-09-18T10:08:54;1.48;;;0.80;;
793;SDS011;380;48.738;9.214;2023-09-18T10:11:21;1.83;;;0.73;;
793;SDS011;380;48.738;9.214;2023-09-18T10:13:54;2.03;;;1.10;;
793;SDS011;380;48.738;9.214;2023-09-18T10:16:22;1.85;;;1.02;;
793;SDS011;380;48.738;9.214;2023-09-18T10:21:31;2.80;;;0.80;;
793;SDS011;380;48.738;9.214;2023-09-18T10:26:29;2.05;;;0.88;;
793;SDS011;380;48.738;9.214;2023-09-18T10:28:58;2.17;;;0.88;;
793;SDS011;380;48.738;9.214;2023-09-18T10:31:27;3.53;;;1.10;;
793;SDS011;380;48.738;9.214;2023-09-18T10:33:57;1.10;;;0.68;;
793;SDS011;380;48.738;9.214;2023-09-18T10:36:25;1.45;;;0.75;;
793;SDS011;380;48.738;9.214;2023-09-18T10:38:51;1.50;;;0.80;;
793;SDS011;380;48.738;9.214;2023-09-18T10:41:19;3.03;;;0.98;;
793;SDS011;380;48.738;9.214;2023-09-18T10:43:46;2.55;;;0.75;;
793;SDS011;380;48.738;9.214;2023-09-18T10:46:14;3.38;;;0.85;;
793;SDS011;380;48.738;9.214;2023-09-18T10:48:41;1.30;;;0.63;;
793;SDS011;380;48.738;9.214;2023-09-18T10:51:07;1.77;;;0.88;;
793;SDS011;380;48.738;9.214;2023-09-18T10:53:33;1.40;;;0.50;;
793;SDS011;380;48.738;9.214;2023-09-18T10:56:00;1.65;;;0.75;;
793;SDS011;380;48.738;9.214;2023-09-18T10:58:29;1.23;;;0.63;;
793;SDS011;380;48.738;9.214;2023-09-18T11:00:55;1.23;;;0.63;;
793;SDS011;380;48.738;9.214;2023-09-18T11:03:22;0.85;;;0.30;;
793;SDS011;380;48.738;9.214;2023-09-18T11:05:49;1.83;;;0.82;;
793;SDS011;380;48.738;9.214;2023-09-18T11:08:31;1.50;;;0.80;;
793;SDS011;380;48.738;9.214;2023-09-18T11:10:59;1.55;;;0.50;;
793;SDS011;380;48.738;9.214;2023-09-18T11:13:29;1.75;;;0.52;;
793;SDS011;380;48.738;9.214;2023-09-18T11:15:59;1.88;;;0.80;;
793;SDS011;380;48.738;9.214;2023-09-18T11:18:31;1.88;;;0.70;;
793;SDS011;380;48.738;9.214;2023-09-18T11:21:08;0.77;;;0.47;;
793;SDS011;380;48.738;9.214;2023-09-18T11:23:34;0.57;;;0.28;;
793;SDS011;380;48.738;9.214;2023-09-18T11:26:03;1.48;;;0.70;;
793;SDS011;380;48.738;9.214;2023-09-18T11:28:32;1.20;;;0.60;;
793;SDS011;380;48.738;9.214;2023-09-18T11:30:58;4.18;;;0.70;;
793;SDS011;380;48.738;9.214;2023-09-18T11:36:04;1.95;;;1.00;;
793;SDS011;380;48.738;9.214;2023-09-18T11:38:31;1.65;;;0.75;;
793;SDS011;380;48.738;9.214;2023-09-18T11:40:58;2.80;;;0.68;;
793;SDS011;380;48.738;9.214;2023-09-18T11:43:27;2.08;;;0.50;;
793;SDS011;380;48.738;9.214;2023-09-18T11:46:00;1.55;;;0.60;;
793;SDS011;380;48.738;9.214;2023-09-18T11:48:30;1.73;;;0.70;;
793;SDS011;380;48.738;9.214;2023-09-18T11:50:59;1.52;;;0.82;;
793;SDS011;380;48.738;9.214;2023-09-18T11:53:28;1.45;;;0.55;;
793;SDS011;380;48.738;9.214;2023-09-18T11:55:54;1.80;;;0.68;;
793;SDS011;380;48.738;9.214;2023-09-18T11:58:20;2.38;;;0.85;;
793;SDS011;380;48.738;9.214;2023-09-18T12:00:48;1.40;;;0.70;;
793;SDS011;380;48.738;9.214;2023-09-18T12:03:15;2.35;;;0.80;;
793;SDS011;380;48.738;9.214;2023-09-18T12:05:59;1.00;;;0.40;;
793;SDS011;380;48.738;9.214;2023-09-18T12:08:26;0.73;;;0.38;;
793;SDS011;380;48.738;9.214;2023-09-18T12:10:53;0.73;;;0.47;;
793;SDS011;380;48.738;9.214;2023-09-18T12:13:19;2.25;;;0.90;;
793;SDS011;380;48.738;9.214;2023-09-18T12:15:46;1.13;;;0.45;;
793;SDS011;380;48.738;9.214;2023-09-18T12:18:13;1.98;;;0.63;;
793;SDS011;380;48.738;9.214;2023-09-18T12:20:49;1.70;;;0.80;;
793;SDS011;380;48.738;9.214;2023-09-18T12:23:16;3.00;;;0.70;;
793;SDS011;380;48.738;9.214;2023-09-18T12:25:45;1.42;;;0.85;;
793;SDS011;380;48.738;9.214;2023-09-18T12:28:12;1.27;;;0.60;;
793;SDS011;380;48.738;9.214;2023-09-18T12:30:40;1.15;;;0.68;;
793;SDS011;380;48.738;9.214;2023-09-18T12:33:06;2.15;;;1.02;;
793;SDS011;380;48.738;9.214;2023-09-18T12:35:32;1.83;;;0.63;;
793;SDS011;380;48.738;9.214;2023-09-18T12:38:01;2.58;;;0.93;;
793;SDS011;380;48.738;9.214;2023-09-18T12:40:30;1.83;;;0.80;;
793;SDS011;380;48.738;9.214;2023-09-18T12:42:58;1.35;;;0.73;;
793;SDS011;380;48.738;9.214;2023-09-18T12:45:24;4.28;;;0.93;;
793;SDS011;380;48.738;9.214;2023-09-18T12:47:51;2.25;;;0.80;;
793;SDS011;380;48.738;9.214;2023-09-18T12:50:17;1.27;;;0.57;;
793;SDS011;380;48.738;9.214;2023-09-18T12:52:43;1.55;;;0.77;;
793;SDS011;380;48.738;9.214;2023-09-18T12:55:25;2.17;;;0.95;;
793;SDS011;380;48.738;9.214;2023-09-18T12:57:52;2.13;;;1.00;;
793;SDS011;380;48.738;9.214;2023-09-18T13:00:19;1.85;;;0.82;;
793;SDS011;380;48.738;9.214;2023-09-18T13:02:47;4.18;;;3.63;;
793;SDS011;380;48.738;9.214;2023-09-18T13:05:18;2.75;;;1.52;;
793;SDS011;380;48.738;9.214;2023-09-18T13:07:44;1.73;;;0.80;;
793;SDS011;380;48.738;9.214;2023-09-18T13:10:10;1.60;;;0.60;;
793;SDS011;380;48.738;9.214;2023-09-18T13:12:39;4.45;;;0.98;;
793;SDS011;380;48.738;9.214;2023-09-18T13:15:05;2.08;;;0.85;;
793;SDS011;380;48.738;9.214;2023-09-18T13:17:43;2.60;;;0.93;;
793;SDS011;380;48.738;9.214;2023-09-18T13:20:11;0.88;;;0.47;;
793;SDS011;380;48.738;9.214;2023-09-18T13:22:38;1.48;;;0.65;;
793;SDS011;380;48.738;9.214;2023-09-18T13:25:05;1.83;;;0.65;;
793;SDS011;380;48.738;9.214;2023-09-18T13:27:32;1.77;;;0.65;;
793;SDS011;380;48.738;9.214;2023-09-18T13:29:58;1.10;;;0.50;;
793;SDS011;380;48.738;9.214;2023-09-18T13:32:31;3.10;;;0.90;;
793;SDS011;380;48.738;9.214;2023-09-18T13:34:57;2.05;;;0.65;;
793;SDS011;380;48.738;9.214;2023-09-18T13:37:23;2.10;;;0.60;;
793;SDS011;380;48.738;9.214;2023-09-18T13:39:49;2.95;;;1.05;;
793;SDS011;380;48.738;9.214;2023-09-18T13:42:15;0.98;;;0.50;;
793;SDS011;380;48.738;9.214;2023-09-18T13:44:41;1.30;;;0.60;;
793;SDS011;380;48.738;9.214;2023-09-18T13:47:07;1.50;;;0.60;;
793;SDS011;380;48.738;9.214;2023-09-18T13:49:33;1.13;;;0.55;;
793;SDS011;380;48.738;9.214;2023-09-18T13:51:59;1.70;;;0.65;;
793;SDS011;380;48.738;9.214;2023-09-18T13:54:25;2.33;;;0.77;;
793;SDS011;380;48.738;9.214;2023-09-18T13:56:51;1.83;;;0.55;;
793;SDS011;380;48.738;9.214;2023-09-18T13:59:20;0.98;;;0.50;;
793;SDS011;380;48.738;9.214;2023-09-18T14:01:46;1.45;;;0.60;;
793;SDS011;380;48.738;9.214;2023-09-18T14:04:12;1.35;;;0.60;;
793;SDS011;380;48.738;9.214;2023-09-18T14:06:38;1.40;;;0.50;;
793;SDS011;380;48.738;9.214;2023-09-18T14:09:04;1.75;;;0.68;;
793;SDS011;380;48.738;9.214;2023-09-18T14:11:30;1.65;;;0.70;;
793;SDS011;380;48.738;9.214;2023-09-18T14:13:56;1.80;;;0.60;;
793;SDS011;380;48.738;9.214;2023-09-18T14:16:22;1.23;;;0.70;;
793;SDS011;380;48.738;9.214;2023-09-18T14:18:50;2.05;;;0.70;;
793;SDS011;380;48.738;9.214;2023-09-18T14:21:18;1.50;;;0.68;;
793;SDS011;380;48.738;9.214;2023-09-18T14:23:43;1.35;;;0.65;;
793;SDS011;380;48.738;9.214;2023-09-18T14:26:09;2.75;;;0.68;;
793;SDS011;380;48.738;9.214;2023-09-18T14:28:35;1.05;;;0.52;;
793;SDS011;380;48.738;9.214;2023-09-18T14:31:02;1.70;;;0.82;;
793;SDS011;380;48.738;9.214;2023-09-18T14:33:28;2.58;;;0.80;;
793;SDS011;380;48.738;9.214;2023-09-18T14:35:54;2.75;;;1.10;;
793;SDS011;380;48.738;9.214;2023-09-18T14:38:20;1.13;;;0.40;;
793;SDS011;380;48.738;9.214;2023-09-18T14:40:46;1.08;;;0.57;;
793;SDS011;380;48.738;9.214;2023-09-18T14:43:12;2.10;;;0.77;;
793;SDS011;380;48.738;9.214;2023-09-18T14:45:38;1.50;;;0.52;;
793;SDS011;380;48.738;9.214;2023-09-18T14:48:05;1.67;;;0.70;;
793;SDS011;380;48.738;9.214;2023-09-18T14:50:31;1.10;;;0.47;;
793;SDS011;380;48.738;9.214;2023-09-18T14:52:57;2.35;;;1.10;;
793;SDS011;380;48.738;9.214;2023-09-18T14:55:23;1.90;;;0.88;;
793;SDS011;380;48.738;9.214;2023-09-18T14:57:49;1.52;;;0.70;;
793;SDS011;380;48.738;9.214;2023-09-18T15:00:15;1.70;;;0.57;;
793;SDS011;380;48.738;9.214;2023-09-18T15:02:41;4.75;;;0.85;;
793;SDS011;380;48.738;9.214;2023-09-18T15:05:07;1.00;;;0.50;;
793;SDS011;380;48.738;9.214;2023-09-18T15:07:37;1.52;;;0.60;;
793;SDS011;380;48.738;9.214;2023-09-18T15:10:03;2.17;;;1.10;;
793;SDS011;380;48.738;9.214;2023-09-18T15:12:30;1.45;;;0.77;;
793;SDS011;380;48.738;9.214;2023-09-18T15:14:56;1.48;;;0.68;;
793;SDS011;380;48.738;9.214;2023-09-18T15:17:22;1.58;;;0.73;;
793;SDS011;380;48.738;9.214;2023-09-18T15:19:48;1.05;;;0.55;;
793;SDS011;380;48.738;9.214;2023-09-18T15:22:20;1.27;;;0.57;;
793;SDS011;380;48.738;9.214;2023-09-18T15:24:46;2.15;;;0.60;;
793;SDS011;380;48.738;9.214;2023-09-18T15:27:12;2.00;;;0.55;;
793;SDS011;380;48.738;9.214;2023-09-18T15:29:38;2.08;;;0.40;;
793;SDS011;380;48.738;9.214;2023-09-18T15:32:04;1.30;;;0.60;;
793;SDS011;380;48.738;9.214;2023-09-18T15:34:30;2.78;;;0.52;;
793;SDS011;380;48.738;9.214;2023-09-18T15:36:56;1.20;;;0.55;;
793;SDS011;380;48.738;9.214;2023-09-18T15:39:22;2.38;;;1.40;;
793;SDS011;380;48.738;9.214;2023-09-18T15:41:49;1.17;;;0.50;;
793;SDS011;380;48.738;9.214;2023-09-18T15:44:15;1.52;;;0.50;;
793;SDS011;380;48.738;9.214;2023-09-18T15:46:41;1.90;;;0.77;;
793;SDS011;380;48.738;9.214;2023-09-18T15:49:07;1.83;;;0.75;;
793;SDS011;380;48.738;9.214;2023-09-18T15:51:33;1.05;;;0.50;;
793;SDS011;380;48.738;9.214;2023-09-18T15:53:59;1.40;;;0.50;;
793;SDS011;380;48.738;9.214;2023-09-18T15:56:25;1.77;;;0.70;;